KELY/ELY METAR and TAF weather

Enter ICAO airport designator
Station Type Date Time Source
KELY METAR 2019/06/19 02:53 UTC NOAA

KELY 190253Z AUTO 33006KT 10SM CLR 21/04 A3015 RMK AO2 SLP121 T02110039 53001


Station Type Date Time Source
KELY Decoded METAR 2019/06/19 02:53 UTC NOAA

ELY AIRPORT (YELLAND FIELD), NV, United States (KELY) 39-18N 114-51W 1906M
Jun 18, 2019 - 10:53 PM EDT / 2019.06.19 0253 UTC
Wind: from the NNW (330 degrees) at 7 MPH (6 KT):0
Visibility: 10 mile(s):0
Sky conditions: clear
Temperature: 70.0 F (21.1 C)
Dew Point: 39.0 F (3.9 C)
Relative Humidity: 32%
Pressure (altimeter): 30.15 in. Hg (1020 hPa)
Pressure tendency: 0.00 inches (0.1 hPa) higher than three hours ago
ob: KELY 190253Z AUTO 33006KT 10SM CLR 21/04 A3015 RMK AO2 SLP121 T02110039 53001
cycle: 3

Station Type Date Time Source
KELY TAF 2019/06/19 03:52 UTC NOAA

TAF
AMD KELY 190250Z 1903/1924 33008KT P6SM BKN090
FM190800 18008KT P6SM SKC
FM191700 VRB06KT P6SM SKC
FM192000 27012G18KT P6SM SKC

Example: see airport list